sensor_id;sensor_type;location;lat;lon;timestamp;pressure;altitude;pressure_sealevel;temperature;humidity
48424;BME280;34232;42.502;26.014;2023-08-08T00:07:01;99540.44;;;24.79;41.68
48424;BME280;34232;42.502;26.014;2023-08-08T00:09:27;99546.84;;;24.66;42.35
48424;BME280;34232;42.502;26.014;2023-08-08T00:11:52;99541.66;;;24.53;43.03
48424;BME280;34232;42.502;26.014;2023-08-08T00:14:18;99546.22;;;24.52;42.87
48424;BME280;34232;42.502;26.014;2023-08-08T00:20:19;99544.22;;;24.48;43.85
48424;BME280;34232;42.502;26.014;2023-08-08T00:30:05;99560.19;;;24.13;46.98
48424;BME280;34232;42.502;26.014;2023-08-08T00:36:10;99569.31;;;23.93;48.20
48424;BME280;34232;42.502;26.014;2023-08-08T00:38:36;99575.22;;;23.84;48.52
48424;BME280;34232;42.502;26.014;2023-08-08T00:41:01;99568.66;;;23.80;48.97
48424;BME280;34232;42.502;26.014;2023-08-08T00:43:47;99564.69;;;23.64;49.09
48424;BME280;34232;42.502;26.014;2023-08-08T00:46:13;99561.19;;;23.63;49.71
48424;BME280;34232;42.502;26.014;2023-08-08T00:48:38;99563.03;;;23.63;49.65
48424;BME280;34232;42.502;26.014;2023-08-08T00:51:04;99555.72;;;23.52;50.23
48424;BME280;34232;42.502;26.014;2023-08-08T00:53:30;99552.03;;;23.46;50.75
48424;BME280;34232;42.502;26.014;2023-08-08T00:55:56;99548.34;;;23.41;51.40
48424;BME280;34232;42.502;26.014;2023-08-08T00:58:23;99552.91;;;23.40;51.68
48424;BME280;34232;42.502;26.014;2023-08-08T01:00:49;99549.78;;;23.43;51.81
48424;BME280;34232;42.502;26.014;2023-08-08T01:03:14;99557.97;;;23.30;52.85
48424;BME280;34232;42.502;26.014;2023-08-08T01:05:43;99561.31;;;23.25;53.00
48424;BME280;34232;42.502;26.014;2023-08-08T01:08:09;99541.53;;;23.20;53.13
48424;BME280;34232;42.502;26.014;2023-08-08T01:10:37;99539.28;;;23.17;53.63
48424;BME280;34232;42.502;26.014;2023-08-08T01:13:23;99547.78;;;23.14;53.98
48424;BME280;34232;42.502;26.014;2023-08-08T01:15:50;99556.56;;;23.02;54.19
48424;BME280;34232;42.502;26.014;2023-08-08T01:18:56;99556.56;;;23.02;53.92
48424;BME280;34232;42.502;26.014;2023-08-08T01:27:44;99567.44;;;23.08;53.63
48424;BME280;34232;42.502;26.014;2023-08-08T01:30:10;99563.78;;;23.02;53.50
48424;BME280;34232;42.502;26.014;2023-08-08T01:32:36;99562.78;;;22.96;53.31
48424;BME280;34232;42.502;26.014;2023-08-08T01:35:01;99559.91;;;22.98;52.98
48424;BME280;34232;42.502;26.014;2023-08-08T01:41:16;99553.59;;;22.86;53.18
48424;BME280;34232;42.502;26.014;2023-08-08T01:44:48;99556.28;;;22.86;53.67
48424;BME280;34232;42.502;26.014;2023-08-08T01:48:09;99582.13;;;22.80;53.43
48424;BME280;34232;42.502;26.014;2023-08-08T01:51:11;99571.63;;;22.72;54.10
48424;BME280;34232;42.502;26.014;2023-08-08T01:53:37;99571.44;;;22.67;54.26
48424;BME280;34232;42.502;26.014;2023-08-08T02:02:27;99567.66;;;22.75;53.85
48424;BME280;34232;42.502;26.014;2023-08-08T02:04:52;99580.25;;;22.74;53.46
48424;BME280;34232;42.502;26.014;2023-08-08T02:22:50;99593.19;;;22.90;53.65
48424;BME280;34232;42.502;26.014;2023-08-08T02:25:16;99589.41;;;23.05;53.50
48424;BME280;34232;42.502;26.014;2023-08-08T02:27:41;99587.69;;;23.10;52.55
48424;BME280;34232;42.502;26.014;2023-08-08T02:30:06;99582.09;;;23.12;52.37
48424;BME280;34232;42.502;26.014;2023-08-08T02:32:32;99594.16;;;23.02;52.62
48424;BME280;34232;42.502;26.014;2023-08-08T02:35:17;99604.19;;;23.14;52.35
48424;BME280;34232;42.502;26.014;2023-08-08T02:41:23;99619.94;;;23.35;52.31
48424;BME280;34232;42.502;26.014;2023-08-08T02:48:00;99612.09;;;23.33;52.19
48424;BME280;34232;42.502;26.014;2023-08-08T02:51:20;99615.19;;;23.30;52.85
48424;BME280;34232;42.502;26.014;2023-08-08T03:00:54;99627.00;;;23.29;52.62
48424;BME280;34232;42.502;26.014;2023-08-08T03:03:20;99629.88;;;23.28;52.64
48424;BME280;34232;42.502;26.014;2023-08-08T03:05:45;99630.66;;;23.35;52.70
48424;BME280;34232;42.502;26.014;2023-08-08T03:08:49;99633.97;;;23.37;52.30
48424;BME280;34232;42.502;26.014;2023-08-08T03:12:27;99631.94;;;23.32;51.96
48424;BME280;34232;42.502;26.014;2023-08-08T03:19:06;99640.53;;;23.41;51.74
48424;BME280;34232;42.502;26.014;2023-08-08T03:22:08;99637.69;;;23.36;51.06
48424;BME280;34232;42.502;26.014;2023-08-08T03:24:33;99630.59;;;23.42;51.60
48424;BME280;34232;42.502;26.014;2023-08-08T03:26:59;99622.91;;;23.45;51.03
48424;BME280;34232;42.502;26.014;2023-08-08T03:29:24;99640.38;;;23.36;51.22
48424;BME280;34232;42.502;26.014;2023-08-08T03:32:22;99638.56;;;23.30;52.02
48424;BME280;34232;42.502;26.014;2023-08-08T03:38:09;99643.94;;;23.30;50.46
48424;BME280;34232;42.502;26.014;2023-08-08T03:40:35;99650.72;;;23.32;50.06
48424;BME280;34232;42.502;26.014;2023-08-08T03:43:00;99658.34;;;23.35;49.96
48424;BME280;34232;42.502;26.014;2023-08-08T03:45:25;99657.53;;;23.35;48.91
48424;BME280;34232;42.502;26.014;2023-08-08T04:00:53;99664.63;;;23.54;51.55
48424;BME280;34232;42.502;26.014;2023-08-08T04:03:20;99666.03;;;23.57;51.58
48424;BME280;34232;42.502;26.014;2023-08-08T04:05:45;99678.66;;;23.56;51.19
48424;BME280;34232;42.502;26.014;2023-08-08T04:08:50;99673.53;;;23.48;51.40
48424;BME280;34232;42.502;26.014;2023-08-08T04:11:48;99680.19;;;23.46;51.71
48424;BME280;34232;42.502;26.014;2023-08-08T04:14:13;99676.28;;;23.42;50.94
48424;BME280;34232;42.502;26.014;2023-08-08T04:16:58;99679.78;;;23.42;50.78
48424;BME280;34232;42.502;26.014;2023-08-08T04:19:25;99684.56;;;23.40;51.60
48424;BME280;34232;42.502;26.014;2023-08-08T04:21:50;99690.63;;;23.29;52.17
48424;BME280;34232;42.502;26.014;2023-08-08T04:24:15;99684.31;;;23.17;52.25
48424;BME280;34232;42.502;26.014;2023-08-08T04:27:12;99688.69;;;23.11;52.80
48424;BME280;34232;42.502;26.014;2023-08-08T04:33:23;99696.63;;;22.99;54.13
48424;BME280;34232;42.502;26.014;2023-08-08T04:35:48;99698.25;;;23.00;54.62
48424;BME280;34232;42.502;26.014;2023-08-08T04:38:14;99702.59;;;23.01;54.50
48424;BME280;34232;42.502;26.014;2023-08-08T04:40:39;99705.72;;;22.98;55.39
48424;BME280;34232;42.502;26.014;2023-08-08T04:46:59;99723.91;;;22.90;55.96
48424;BME280;34232;42.502;26.014;2023-08-08T04:50:24;99717.72;;;22.89;56.82
48424;BME280;34232;42.502;26.014;2023-08-08T04:53:20;99727.06;;;22.80;56.63
48424;BME280;34232;42.502;26.014;2023-08-08T04:55:45;99738.84;;;22.73;55.57
48424;BME280;34232;42.502;26.014;2023-08-08T04:58:10;99750.44;;;22.66;54.79
48424;BME280;34232;42.502;26.014;2023-08-08T05:00:36;99762.41;;;22.64;55.12
48424;BME280;34232;42.502;26.014;2023-08-08T05:03:01;99766.53;;;22.60;56.00
48424;BME280;34232;42.502;26.014;2023-08-08T05:05:26;99774.44;;;22.42;56.70
48424;BME280;34232;42.502;26.014;2023-08-08T05:11:38;99776.16;;;22.23;57.47
48424;BME280;34232;42.502;26.014;2023-08-08T05:18:10;99799.03;;;22.12;60.77
48424;BME280;34232;42.502;26.014;2023-08-08T05:20:54;99806.25;;;22.12;61.98
48424;BME280;34232;42.502;26.014;2023-08-08T05:23:22;99798.00;;;22.00;62.80
48424;BME280;34232;42.502;26.014;2023-08-08T05:25:48;99793.44;;;21.87;63.64
48424;BME280;34232;42.502;26.014;2023-08-08T05:28:46;99813.22;;;21.80;63.32
48424;BME280;34232;42.502;26.014;2023-08-08T05:32:12;99822.91;;;21.68;62.51
48424;BME280;34232;42.502;26.014;2023-08-08T05:38:36;99847.78;;;21.42;61.76
48424;BME280;34232;42.502;26.014;2023-08-08T05:41:25;99851.84;;;21.31;62.47
48424;BME280;34232;42.502;26.014;2023-08-08T05:43:50;99865.38;;;21.16;62.79
48424;BME280;34232;42.502;26.014;2023-08-08T05:46:16;99858.16;;;21.10;62.45
48424;BME280;34232;42.502;26.014;2023-08-08T05:48:41;99857.72;;;21.07;62.69
48424;BME280;34232;42.502;26.014;2023-08-08T05:51:06;99861.56;;;20.98;62.63
48424;BME280;34232;42.502;26.014;2023-08-08T05:53:32;99862.38;;;20.91;62.08
48424;BME280;34232;42.502;26.014;2023-08-08T05:56:00;99859.47;;;20.86;61.94
48424;BME280;34232;42.502;26.014;2023-08-08T05:58:25;99863.53;;;20.82;62.02
48424;BME280;34232;42.502;26.014;2023-08-08T06:00:51;99872.19;;;20.78;61.94
48424;BME280;34232;42.502;26.014;2023-08-08T06:03:17;99886.34;;;20.78;62.28
48424;BME280;34232;42.502;26.014;2023-08-08T06:05:42;99894.56;;;20.70;62.74
48424;BME280;34232;42.502;26.014;2023-08-08T06:08:09;99899.25;;;20.68;62.43
48424;BME280;34232;42.502;26.014;2023-08-08T06:10:37;99906.75;;;20.79;62.38
48424;BME280;34232;42.502;26.014;2023-08-08T06:13:03;99907.81;;;20.85;62.21
48424;BME280;34232;42.502;26.014;2023-08-08T06:15:29;99909.53;;;20.92;62.04
48424;BME280;34232;42.502;26.014;2023-08-08T06:20:57;99921.72;;;21.02;61.67
48424;BME280;34232;42.502;26.014;2023-08-08T06:23:23;99920.06;;;21.01;60.79
48424;BME280;34232;42.502;26.014;2023-08-08T06:25:48;99919.28;;;21.07;60.09
48424;BME280;34232;42.502;26.014;2023-08-08T06:28:13;99916.41;;;21.08;59.71
48424;BME280;34232;42.502;26.014;2023-08-08T06:30:39;99920.94;;;21.08;59.56
48424;BME280;34232;42.502;26.014;2023-08-08T06:33:04;99926.28;;;21.08;59.15
48424;BME280;34232;42.502;26.014;2023-08-08T06:35:30;99936.13;;;21.01;59.37
48424;BME280;34232;42.502;26.014;2023-08-08T06:38:24;99930.44;;;21.10;58.79
48424;BME280;34232;42.502;26.014;2023-08-08T06:41:21;99921.72;;;21.02;58.74
48424;BME280;34232;42.502;26.014;2023-08-08T06:43:47;99921.09;;;21.00;58.67
48424;BME280;34232;42.502;26.014;2023-08-08T06:46:12;99931.41;;;21.03;58.30
48424;BME280;34232;42.502;26.014;2023-08-08T06:48:38;99932.28;;;21.10;58.47
48424;BME280;34232;42.502;26.014;2023-08-08T06:51:03;99940.09;;;21.11;58.01
48424;BME280;34232;42.502;26.014;2023-08-08T06:53:29;99948.94;;;21.12;58.05
48424;BME280;34232;42.502;26.014;2023-08-08T06:55:54;99957.41;;;21.09;57.88
48424;BME280;34232;42.502;26.014;2023-08-08T06:58:19;99958.38;;;21.01;57.48
48424;BME280;34232;42.502;26.014;2023-08-08T07:00:45;99956.38;;;21.10;57.26
48424;BME280;34232;42.502;26.014;2023-08-08T07:03:38;99968.50;;;21.06;57.33
48424;BME280;34232;42.502;26.014;2023-08-08T07:06:54;99980.22;;;21.05;57.38
48424;BME280;34232;42.502;26.014;2023-08-08T07:09:20;99983.03;;;20.96;58.85
48424;BME280;34232;42.502;26.014;2023-08-08T07:11:46;99977.88;;;20.95;59.63
48424;BME280;34232;42.502;26.014;2023-08-08T07:14:11;99988.00;;;21.00;59.41
48424;BME280;34232;42.502;26.014;2023-08-08T07:16:37;99984.06;;;20.95;60.23
48424;BME280;34232;42.502;26.014;2023-08-08T07:19:02;99988.63;;;21.02;60.33
48424;BME280;34232;42.502;26.014;2023-08-08T07:21:28;99999.97;;;21.04;60.04
48424;BME280;34232;42.502;26.014;2023-08-08T07:23:54;99994.38;;;20.99;58.96
48424;BME280;34232;42.502;26.014;2023-08-08T07:26:39;99991.59;;;20.85;63.94
48424;BME280;34232;42.502;26.014;2023-08-08T07:29:50;99988.19;;;20.70;67.87
48424;BME280;34232;42.502;26.014;2023-08-08T07:32:58;99982.84;;;20.49;69.13
48424;BME280;34232;42.502;26.014;2023-08-08T07:36:13;100004.34;;;20.19;71.06
48424;BME280;34232;42.502;26.014;2023-08-08T07:39:24;99998.91;;;19.91;72.38
48424;BME280;34232;42.502;26.014;2023-08-08T07:42:40;100014.84;;;19.85;72.96
48424;BME280;34232;42.502;26.014;2023-08-08T07:48:24;100014.47;;;19.88;75.30
48424;BME280;34232;42.502;26.014;2023-08-08T07:50:49;100013.00;;;19.85;74.74
48424;BME280;34232;42.502;26.014;2023-08-08T07:53:42;100016.97;;;19.89;74.86
48424;BME280;34232;42.502;26.014;2023-08-08T07:56:34;100013.84;;;19.86;75.05
48424;BME280;34232;42.502;26.014;2023-08-08T07:58:59;100035.66;;;19.89;75.47
48424;BME280;34232;42.502;26.014;2023-08-08T08:01:25;100041.56;;;19.85;74.38
48424;BME280;34232;42.502;26.014;2023-08-08T08:10:33;100047.66;;;19.79;74.57
48424;BME280;34232;42.502;26.014;2023-08-08T08:28:42;100049.53;;;19.64;80.57
48424;BME280;34232;42.502;26.014;2023-08-08T08:31:28;100058.16;;;19.66;79.48
48424;BME280;34232;42.502;26.014;2023-08-08T08:33:54;100059.09;;;19.73;79.58
48424;BME280;34232;42.502;26.014;2023-08-08T08:36:40;100042.31;;;19.79;81.12
48424;BME280;34232;42.502;26.014;2023-08-08T08:39:28;100054.09;;;19.84;82.77
48424;BME280;34232;42.502;26.014;2023-08-08T08:42:36;100051.56;;;19.98;81.72
48424;BME280;34232;42.502;26.014;2023-08-08T08:45:09;100044.75;;;20.10;77.38
48424;BME280;34232;42.502;26.014;2023-08-08T08:48:14;100044.91;;;20.23;81.63
48424;BME280;34232;42.502;26.014;2023-08-08T08:51:00;100048.72;;;20.35;79.38
48424;BME280;34232;42.502;26.014;2023-08-08T08:53:28;100047.22;;;20.47;81.22
48424;BME280;34232;42.502;26.014;2023-08-08T08:55:55;100042.41;;;20.57;78.25
48424;BME280;34232;42.502;26.014;2023-08-08T08:59:00;100053.03;;;20.72;80.40
48424;BME280;34232;42.502;26.014;2023-08-08T09:01:49;100052.41;;;20.70;79.46
48424;BME280;34232;42.502;26.014;2023-08-08T09:04:34;100057.31;;;20.67;72.67
48424;BME280;34232;42.502;26.014;2023-08-08T09:07:03;100058.66;;;20.77;74.84
48424;BME280;34232;42.502;26.014;2023-08-08T09:09:51;100055.19;;;20.62;64.11
48424;BME280;34232;42.502;26.014;2023-08-08T09:12:56;100067.50;;;20.56;67.24
48424;BME280;34232;42.502;26.014;2023-08-08T09:15:42;100047.31;;;20.75;68.74
48424;BME280;34232;42.502;26.014;2023-08-08T09:18:28;100053.34;;;20.84;67.03
48424;BME280;34232;42.502;26.014;2023-08-08T09:20:53;100054.09;;;20.99;67.05
48424;BME280;34232;42.502;26.014;2023-08-08T09:23:19;100063.03;;;21.13;65.27
48424;BME280;34232;42.502;26.014;2023-08-08T09:26:06;100072.25;;;21.25;60.24
48424;BME280;34232;42.502;26.014;2023-08-08T09:36:15;100080.81;;;22.17;59.81
48424;BME280;34232;42.502;26.014;2023-08-08T09:38:41;100078.19;;;22.30;57.19
48424;BME280;34232;42.502;26.014;2023-08-08T09:41:26;100077.44;;;22.63;61.23
48424;BME280;34232;42.502;26.014;2023-08-08T09:47:42;100071.28;;;23.09;58.91
48424;BME280;34232;42.502;26.014;2023-08-08T09:50:08;100067.38;;;23.18;54.27
48424;BME280;34232;42.502;26.014;2023-08-08T09:52:35;100070.25;;;23.23;54.29
48424;BME280;34232;42.502;26.014;2023-08-08T09:55:24;100066.34;;;23.19;53.19
48424;BME280;34232;42.502;26.014;2023-08-08T09:58:13;100078.31;;;23.23;53.42
48424;BME280;34232;42.502;26.014;2023-08-08T10:00:59;100057.44;;;23.25;54.21
48424;BME280;34232;42.502;26.014;2023-08-08T10:03:44;100065.50;;;23.25;52.77
48424;BME280;34232;42.502;26.014;2023-08-08T10:06:30;100064.28;;;23.21;53.52
48424;BME280;34232;42.502;26.014;2023-08-08T10:09:25;100072.97;;;23.16;54.60
48424;BME280;34232;42.502;26.014;2023-08-08T10:12:30;100070.06;;;23.18;55.73
48424;BME280;34232;42.502;26.014;2023-08-08T10:14:57;100070.91;;;23.18;52.79
48424;BME280;34232;42.502;26.014;2023-08-08T10:17:43;100079.97;;;23.11;51.61
48424;BME280;34232;42.502;26.014;2023-08-08T10:20:59;100083.69;;;23.23;49.02
48424;BME280;34232;42.502;26.014;2023-08-08T10:23:45;100074.81;;;23.29;49.49
48424;BME280;34232;42.502;26.014;2023-08-08T10:26:32;100082.66;;;23.37;48.19
48424;BME280;34232;42.502;26.014;2023-08-08T10:28:59;100073.38;;;23.33;46.89
48424;BME280;34232;42.502;26.014;2023-08-08T10:31:34;100070.25;;;23.29;46.94
48424;BME280;34232;42.502;26.014;2023-08-08T10:34:00;100068.38;;;23.43;49.49
48424;BME280;34232;42.502;26.014;2023-08-08T10:36:42;100064.84;;;23.49;49.05
48424;BME280;34232;42.502;26.014;2023-08-08T10:39:10;100059.47;;;23.56;48.85
48424;BME280;34232;42.502;26.014;2023-08-08T10:41:43;100060.94;;;23.58;48.23
48424;BME280;34232;42.502;26.014;2023-08-08T10:44:13;100062.53;;;23.72;48.66
48424;BME280;34232;42.502;26.014;2023-08-08T10:46:40;100060.25;;;23.83;47.47
48424;BME280;34232;42.502;26.014;2023-08-08T10:49:06;100051.88;;;24.04;47.51
48424;BME280;34232;42.502;26.014;2023-08-08T10:51:38;100041.13;;;24.49;47.82
48424;BME280;34232;42.502;26.014;2023-08-08T10:54:30;100042.84;;;24.99;47.00
48424;BME280;34232;42.502;26.014;2023-08-08T10:56:58;100039.00;;;25.32;45.61
48424;BME280;34232;42.502;26.014;2023-08-08T10:59:25;100034.38;;;25.57;45.71
48424;BME280;34232;42.502;26.014;2023-08-08T11:01:52;100035.91;;;25.90;42.51
48424;BME280;34232;42.502;26.014;2023-08-08T11:04:21;100036.13;;;26.18;43.89
48424;BME280;34232;42.502;26.014;2023-08-08T11:06:52;100025.03;;;26.56;43.59
48424;BME280;34232;42.502;26.014;2023-08-08T11:09:19;100028.84;;;26.90;42.42
48424;BME280;34232;42.502;26.014;2023-08-08T11:11:45;100012.34;;;27.10;40.24
48424;BME280;34232;42.502;26.014;2023-08-08T11:14:31;100016.63;;;27.46;41.60
48424;BME280;34232;42.502;26.014;2023-08-08T11:17:21;100016.63;;;27.69;39.03
48424;BME280;34232;42.502;26.014;2023-08-08T11:20:06;100004.94;;;27.92;38.70
48424;BME280;34232;42.502;26.014;2023-08-08T11:23:12;100015.31;;;28.12;38.67
48424;BME280;34232;42.502;26.014;2023-08-08T11:26:02;100003.72;;;28.28;37.06
48424;BME280;34232;42.502;26.014;2023-08-08T11:28:32;100005.06;;;28.42;37.82
48424;BME280;34232;42.502;26.014;2023-08-08T11:30:58;100009.25;;;28.50;37.31
48424;BME280;34232;42.502;26.014;2023-08-08T11:33:24;100001.97;;;28.50;35.89
48424;BME280;34232;42.502;26.014;2023-08-08T11:35:50;99993.50;;;28.64;36.51
48424;BME280;34232;42.502;26.014;2023-08-08T11:38:16;99994.22;;;28.76;36.60
48424;BME280;34232;42.502;26.014;2023-08-08T11:43:26;99985.16;;;28.82;35.02
48424;BME280;34232;42.502;26.014;2023-08-08T11:45:52;99983.59;;;28.86;35.63
48424;BME280;34232;42.502;26.014;2023-08-08T11:48:20;99979.06;;;28.92;35.25
48424;BME280;34232;42.502;26.014;2023-08-08T11:50:45;99983.75;;;28.96;35.34
48424;BME280;34232;42.502;26.014;2023-08-08T11:53:33;99983.09;;;29.06;35.22
48424;BME280;34232;42.502;26.014;2023-08-08T11:56:01;99986.19;;;29.14;34.85
48424;BME280;34232;42.502;26.014;2023-08-08T11:58:29;99983.72;;;29.13;34.46
48424;BME280;34232;42.502;26.014;2023-08-08T12:00:54;99972.38;;;29.16;35.62
48424;BME280;34232;42.502;26.014;2023-08-08T12:03:21;99977.69;;;29.28;34.56
48424;BME280;34232;42.502;26.014;2023-08-08T12:05:59;99970.38;;;29.28;34.21
48424;BME280;34232;42.502;26.014;2023-08-08T12:08:24;99965.28;;;29.32;33.46
48424;BME280;34232;42.502;26.014;2023-08-08T12:10:51;99978.00;;;29.31;34.34
48424;BME280;34232;42.502;26.014;2023-08-08T12:13:19;99965.75;;;29.29;33.75
48424;BME280;34232;42.502;26.014;2023-08-08T12:15:45;99963.19;;;29.17;33.60
48424;BME280;34232;42.502;26.014;2023-08-08T12:27:06;99943.66;;;28.98;34.29
48424;BME280;34232;42.502;26.014;2023-08-08T12:29:52;99933.38;;;29.00;34.53
48424;BME280;34232;42.502;26.014;2023-08-08T12:32:37;99946.94;;;29.00;34.40
48424;BME280;34232;42.502;26.014;2023-08-08T12:38:28;99940.50;;;29.06;33.84
48424;BME280;34232;42.502;26.014;2023-08-08T12:41:17;99929.13;;;29.04;33.41
48424;BME280;34232;42.502;26.014;2023-08-08T12:44:04;99928.09;;;29.10;34.50
48424;BME280;34232;42.502;26.014;2023-08-08T12:46:54;99928.59;;;29.07;33.75
48424;BME280;34232;42.502;26.014;2023-08-08T12:52:53;99923.44;;;29.06;34.17
48424;BME280;34232;42.502;26.014;2023-08-08T13:12:33;99910.91;;;29.21;33.12
48424;BME280;34232;42.502;26.014;2023-08-08T13:14:58;99910.13;;;29.26;32.27
48424;BME280;34232;42.502;26.014;2023-08-08T13:17:24;99904.66;;;29.21;32.53
48424;BME280;34232;42.502;26.014;2023-08-08T13:19:49;99904.94;;;29.24;32.74
48424;BME280;34232;42.502;26.014;2023-08-08T13:22:30;99899.03;;;29.28;32.73
48424;BME280;34232;42.502;26.014;2023-08-08T13:25:16;99908.81;;;29.29;33.37
48424;BME280;34232;42.502;26.014;2023-08-08T13:27:45;99904.84;;;29.14;32.28
48424;BME280;34232;42.502;26.014;2023-08-08T13:30:43;99903.31;;;29.23;32.49
48424;BME280;34232;42.502;26.014;2023-08-08T13:36:57;99908.72;;;29.23;31.75
48424;BME280;34232;42.502;26.014;2023-08-08T13:40:09;99901.41;;;29.24;31.34
48424;BME280;34232;42.502;26.014;2023-08-08T13:42:46;99905.59;;;29.32;31.67
48424;BME280;34232;42.502;26.014;2023-08-08T13:46:06;99908.94;;;29.39;31.98
48424;BME280;34232;42.502;26.014;2023-08-08T13:48:35;99908.69;;;29.40;31.01
48424;BME280;34232;42.502;26.014;2023-08-08T13:51:01;99912.66;;;29.33;30.75
48424;BME280;34232;42.502;26.014;2023-08-08T13:53:26;99921.88;;;29.32;30.25
48424;BME280;34232;42.502;26.014;2023-08-08T13:55:53;99918.47;;;29.19;29.30
48424;BME280;34232;42.502;26.014;2023-08-08T13:58:23;99920.53;;;29.12;29.95
48424;BME280;34232;42.502;26.014;2023-08-08T14:01:28;99923.00;;;29.14;29.95
48424;BME280;34232;42.502;26.014;2023-08-08T14:04:35;99926.03;;;29.17;30.77
48424;BME280;34232;42.502;26.014;2023-08-08T14:07:40;99923.31;;;29.17;30.04
48424;BME280;34232;42.502;26.014;2023-08-08T14:13:29;99938.88;;;29.05;30.97
48424;BME280;34232;42.502;26.014;2023-08-08T14:15:55;99930.19;;;29.03;30.27
48424;BME280;34232;42.502;26.014;2023-08-08T14:18:41;99923.69;;;29.04;31.21
48424;BME280;34232;42.502;26.014;2023-08-08T14:21:47;99930.09;;;28.98;30.83
48424;BME280;34232;42.502;26.014;2023-08-08T14:24:18;99928.91;;;28.89;30.85
48424;BME280;34232;42.502;26.014;2023-08-08T14:27:05;99928.81;;;28.84;30.96
48424;BME280;34232;42.502;26.014;2023-08-08T14:29:32;99937.44;;;28.81;30.51
48424;BME280;34232;42.502;26.014;2023-08-08T14:31:57;99926.09;;;28.84;30.30
48424;BME280;34232;42.502;26.014;2023-08-08T14:34:32;99936.47;;;28.87;31.21
48424;BME280;34232;42.502;26.014;2023-08-08T14:37:17;99936.13;;;28.83;30.60
48424;BME280;34232;42.502;26.014;2023-08-08T14:40:03;99936.63;;;28.80;30.90
48424;BME280;34232;42.502;26.014;2023-08-08T14:42:29;99947.34;;;28.75;30.52
48424;BME280;34232;42.502;26.014;2023-08-08T14:45:07;99948.28;;;28.81;31.00
48424;BME280;34232;42.502;26.014;2023-08-08T14:47:33;99942.84;;;28.81;30.58
48424;BME280;34232;42.502;26.014;2023-08-08T14:50:19;99948.75;;;28.78;30.45
48424;BME280;34232;42.502;26.014;2023-08-08T14:53:05;99942.16;;;28.74;30.95
48424;BME280;34232;42.502;26.014;2023-08-08T14:55:33;99944.81;;;28.69;30.73
48424;BME280;34232;42.502;26.014;2023-08-08T14:58:21;99941.03;;;28.70;31.36
48424;BME280;34232;42.502;26.014;2023-08-08T15:01:25;99949.56;;;28.62;30.80
48424;BME280;34232;42.502;26.014;2023-08-08T15:03:51;99946.38;;;28.65;30.65
48424;BME280;34232;42.502;26.014;2023-08-08T15:06:35;99952.28;;;28.62;30.64
48424;BME280;34232;42.502;26.014;2023-08-08T15:09:21;99945.47;;;28.59;31.54
48424;BME280;34232;42.502;26.014;2023-08-08T18:21:24;100084.63;;;24.46;40.81
48424;BME280;34232;42.502;26.014;2023-08-08T18:23:52;100082.38;;;24.36;41.32
48424;BME280;34232;42.502;26.014;2023-08-08T18:26:18;100091.72;;;24.33;41.87
48424;BME280;34232;42.502;26.014;2023-08-08T18:28:46;100097.13;;;24.20;42.29
48424;BME280;34232;42.502;26.014;2023-08-08T18:31:17;100092.63;;;24.07;42.87
48424;BME280;34232;42.502;26.014;2023-08-08T18:34:03;100100.13;;;23.99;43.30
48424;BME280;34232;42.502;26.014;2023-08-08T18:36:29;100101.38;;;23.90;43.62
48424;BME280;34232;42.502;26.014;2023-08-08T18:38:55;100101.63;;;23.82;43.75
48424;BME280;34232;42.502;26.014;2023-08-08T18:41:37;100102.66;;;23.74;44.57
48424;BME280;34232;42.502;26.014;2023-08-08T18:44:03;100107.66;;;23.57;44.95
48424;BME280;34232;42.502;26.014;2023-08-08T18:46:30;100099.78;;;23.49;45.17
48424;BME280;34232;42.502;26.014;2023-08-08T18:48:56;100109.72;;;23.42;45.77
48424;BME280;34232;42.502;26.014;2023-08-08T18:51:31;100110.97;;;23.33;45.18
48424;BME280;34232;42.502;26.014;2023-08-08T18:53:58;100107.25;;;23.27;44.99
48424;BME280;34232;42.502;26.014;2023-08-08T18:56:25;100114.09;;;23.17;45.22
48424;BME280;34232;42.502;26.014;2023-08-08T18:58:51;100109.31;;;23.12;45.28
48424;BME280;34232;42.502;26.014;2023-08-08T19:01:17;100113.44;;;23.08;45.22
48424;BME280;34232;42.502;26.014;2023-08-08T19:07:05;100122.34;;;23.02;45.62
48424;BME280;34232;42.502;26.014;2023-08-08T19:10:10;100124.19;;;23.01;45.60
48424;BME280;34232;42.502;26.014;2023-08-08T19:13:16;100122.53;;;22.87;45.10
48424;BME280;34232;42.502;26.014;2023-08-08T19:15:53;100122.13;;;22.97;44.83
48424;BME280;34232;42.502;26.014;2023-08-08T19:18:19;100124.59;;;22.98;45.75
48424;BME280;34232;42.502;26.014;2023-08-08T19:20:44;100127.06;;;22.93;45.59
48424;BME280;34232;42.502;26.014;2023-08-08T19:23:13;100139.88;;;22.85;46.06
48424;BME280;34232;42.502;26.014;2023-08-08T19:26:31;100129.94;;;22.79;45.79
48424;BME280;34232;42.502;26.014;2023-08-08T19:29:17;100131.59;;;22.80;45.15
48424;BME280;34232;42.502;26.014;2023-08-08T19:32:03;100131.78;;;22.78;45.17
48424;BME280;34232;42.502;26.014;2023-08-08T19:34:48;100134.44;;;22.72;45.34
48424;BME280;34232;42.502;26.014;2023-08-08T19:40:39;100138.72;;;22.53;45.31
48424;BME280;34232;42.502;26.014;2023-08-08T19:45:50;100135.41;;;22.51;45.08
48424;BME280;34232;42.502;26.014;2023-08-08T19:48:36;100131.91;;;22.57;44.53
48424;BME280;34232;42.502;26.014;2023-08-08T19:51:41;100131.97;;;22.70;44.47
48424;BME280;34232;42.502;26.014;2023-08-08T19:54:09;100139.84;;;22.78;44.75
48424;BME280;34232;42.502;26.014;2023-08-08T19:56:35;100140.47;;;22.80;45.02
48424;BME280;34232;42.502;26.014;2023-08-08T19:59:40;100149.34;;;22.81;45.66
48424;BME280;34232;42.502;26.014;2023-08-08T20:02:45;100147.63;;;22.73;46.11